АЭРОДРОМУУД

ICAO:
ZMUB
Нэр:
УЛААНБААТАР / БУЯНТ-УХАА
Ахц:
475033N 1064603E
230319 ZMUBYNYX
(A0392/21 NOTAMN
Q) ZMUB/QFALT/IV/NBO/A /000/999/4750N10646E005
A) ZMUB B) 2107230319 C) PERM
E) AD AVBL FROM SR TO SS FOR DOMESTIC STATE, SAR, HOSP, TECH, GENERAL AVIATION FLIGHTS. REF/ AIP MONGOLIA ZMUB AD 2.3)
- 22 hours ago -

080433 ZMUBYNYX
(A0365/21 NOTAMN
Q) ZMUB/QFFCG/IV/NBO/A /000/999/4750N10646E005
A) ZMUB B) 2107080433 C) PERM
E) AD CAT FOR FIREFIGHTING DOWNGRADED TO CAT 6. RMK/ ON REQUEST CAT 8 REF AIP MONGOLIA AD 2.6)
- 2 weeks ago -

061128 ZMUBYNYX
(A0355/21 NOTAMN
Q) ZMUB/QFALT/IV/NBO/A /000/999/4750N10646E005
A) ZMUB B) 2107061400 C) 2107311600
E) AD AVBL FOR EMERGENCY LANDING)
- 3 weeks ago -

061127 ZMUBYNYX
(A0354/21 NOTAMN
Q) ZMUB/QFALT/IV/NBO/A /000/999/4750N10646E005
A) ZMUB B) 2107070000 C) 2107310900
D) DLY 0000-0900
E) AD AVBL FOR ALTN)
- 3 weeks ago -

051023 ZMUBYNYX
(A0351/21 NOTAMN
Q) ZMUB/QFAXX/IV/NBO/A /000/999/4750N10646E005
A) ZMUB B) 2107051023 C) PERM
E) STATUS OF AD CERTIFICATION CHANGED TO NON-CERTIFICATED AD REF AIP MONGOLIA AD 1.5)
- 3 weeks ago -

010025 ZMUBYNYX
(A0338/21 NOTAMR A0337/21
Q) ZMUB/QKKKK/K /K /K /000/999/4752N10350E999
A) ZMUB B) 2107010025 C) 2108010700 EST
E) CHECKLIST YEAR=2021 0285 0289 0293 0305 0314 0318 0325 0335 LATEST PUBLICATIONS: AIP AMDT: 04/21 PUBLICATION DATE 01 JUL 2021 AIRAC AIP AMDT: 05/21 WEF 12 AUG 2021 AIC (SERIES A): 03/21 PUBLICATION DATE 16 APR 2021 AIP SUP: 08/20 PUBLICATION DATE 19 NOV 2020 AIRAC AIP SUP: 01/21 WEF 12 AUG 2021 AIP DATA SET: AIPZM-AMDT01-21 PUB 14 JAN 2021 OBST DATA SET: O-AREA1ZM200618 WEF 18 JUN 2020 O-AREA2ZMCK200618 WEF 18 JUN 2020 O-AREA2ZMUB200730 WEF 10 SEP 2020 O-AREA3ZMCK200618 WEF 18 JUN 2020 O-AREA3ZMUB200618 WEF 18 JUN 2020 TERRAIN DATA SET: T-AREA1ZM200618 WEF 18 JUN 2020 T-AREA2ZMCK200618 WEF 18 JUN 2020 T-AREA2ZMUB200618 WEF 18 JUN 2020 T-AREA3ZMCK200618 WEF 18 JUN 2020 T-AREA3ZMUB200618 WEF 18 JUN 2020 AD MAPPING DATA SET: AMDBZMCK200618 WEF 18 JUN 2020 AMDBZMUB200618 WEF 18 JUN 2020 AMDBZMDZ200618 WEF 18 JUN 2020 IFP DATA SET:IFPZM21 WEF 04 JAN 2021 AIP SUP CHECKLIST: AIP SUP: 01/20,06/20, 07/20, 08/20 AIRAC AIP SUP: 01/21 AIC CHECKLIST: AIC (SERIES A): 04/17, 03/20, 06/20, 01/21, 02/21, 03/21)
- 3 weeks ago -

010009 ZMUBYNYX
(C0087/21 NOTAMR C0068/21
Q) ZMUB/QKKKK/K /K /K /000/999/4752N10350E999
A) ZMUB B) 2107010009 C) 2108010700 EST
E) CHECKLIST YEAR=2021 0037 0051 0056 0081 0084 0085 0086 LATEST PUBLICATIONS: AIP AMDT: 04/21 PUBLICATION DATE 01 JUL 2021 AIRAC AIP AMDT: 05/21 WEF 12 AUG 2021 AIC (SERIES C): 01/21 PUBLICATION DATE 18 JAN 2021 AIP SUP: 08/20 PUBLICATION DATE 19 NOV 2020 AIRAC AIP SUP: 01/21 WEF 12 AUG 2021 AIP DATA SET: AIPZM-AMDT01-21 PUB 14 JAN 2021 OBST DATA SET: O-AREA1ZM200618 WEF 18 JUN 2020 O-AREA2ZMCK200618 WEF 18 JUN 2020 O-AREA2ZMUB200730 WEF 10 SEP 2020 O-AREA3ZMCK200618 WEF 18 JUN 2020 O-AREA3ZMUB200618 WEF 18 JUN 2020 TERRAIN DATA SET: T-AREA1ZM200618 WEF 18 JUN 2020 T-AREA2ZMCK200618 WEF 18 JUN 2020 T-AREA2ZMUB200618 WEF 18 JUN 2020 T-AREA3ZMCK200618 WEF 18 JUN 2020 T-AREA3ZMUB200618 WEF 18 JUN 2020 AD MAPPING DATA SET: AMDBZMCK200618 WEF 18 JUN 2020 AMDBZMUB200618 WEF 18 JUN 2020 AMDBZMDZ200618 WEF 18 JUN 2020 IFP DATA SET:IFPZM21 WEF 04 JAN 2021 AIP SUP CHECKLIST: AIP SUP: 01/20,06/20, 07/20, 08/20 AIRAC AIP SUP: 01/21 AIC CHECKLIST: AIC (SERIES C): 02/08, 02/20, 01/21)
- 3 weeks ago -

170901 ZMUBYNYX
(A0318/21 NOTAMN
Q) ZMUB/QFAXX/IV/NBO/A /000/999/4750N10646E005
A) ZMUB B) 2107040340 C) PERM
E) COMMERCIAL FLIGHTS WILL NOT BE OPERATED AT THE BUYANT-UKHAA INTL AP.)
- 1 month ago -

METAR
METAR ZMUB 240100Z VRB02MPS CAVOK 19/12 Q1014 NOSIG RMK QFE653.3 66=
- 24 minutes ago -

TAF
TAF ZMUB 232250Z 2400/2409 VRB02MPS 9999 FEW030CB SCT033 BECMG 2401/2403 34005MPS=
- 3 hours ago -

TAF ZMUB 232250Z 2400/2409 VRB02MPS 9999 FEW030CB SCT033 BECMG 2401/2403 34005MPS=
- 3 hours ago -

TAF ZMUB 232240Z 2400/2506 VRB02MPS 9999 FEW030CB SCT033 TX26/2407Z TN14/2421Z BECMG 2401/2403 34005MPS BECMG 2411/2413 VRB02MPS PROB40 TEMPO 2418/2506 VRB08G13MPS TSRA SCT027CB SCT030=
- 3 hours ago -

TAF ZMUB 232240Z 2400/2506 VRB02MPS 9999 FEW030CB SCT033 TX26/2407Z TN14/2421Z BECMG 2401/2403 34005MPS BECMG 2411/2413 VRB02MPS PROB40 TEMPO 2418/2506 VRB08G13MPS TSRA SCT027CB SCT030=
- 3 hours ago -

TAF ZMUB 231950Z 2321/2406 VRB02MPS 9999 FEW030CB SCT033 BECMG 2401/2403 34005MPS=
- 5 hours ago -

TAF ZMUB 231950Z 2321/2406 VRB02MPS 9999 FEW030CB SCT033 BECMG 2401/2403 34005MPS=
- 5 hours ago -

TAF ZMUB 231635Z 2318/2424 VRB02MPS 9999 FEW030CB SCT033 TN11/2321Z TX26/2407Z BECMG 2401/2403 34005MPS BECMG 2411/2413 VRB02MPS=
- 9 hours ago -

TAF ZMUB 231635Z 2318/2424 VRB02MPS 9999 FEW030CB SCT033 TN11/2321Z TX26/2407Z BECMG 2401/2403 34005MPS BECMG 2411/2413 VRB02MPS=
- 9 hours ago -

TAF ZMUB 231040Z 2312/2418 VRB02MPS 9999 FEW030CB SCT033 TN11/2321Z TX26/2407Z BECMG 2401/2403 34005MPS BECMG 2411/2413 VRB02MPS=
- 15 hours ago -

TAF ZMUB 231040Z 2312/2418 VRB02MPS 9999 FEW030CB SCT033 TN11/2321Z TX26/2407Z BECMG 2401/2403 34005MPS BECMG 2411/2413 VRB02MPS=
- 15 hours ago -

TAF ZMUB 230440Z 2306/2412 VRB02MPS 9999 FEW030CB SCT033 TX25/2307Z TN12/2321Z BECMG 2401/2403 34005MPS=
- 21 hours ago -

TAF ZMUB 222249Z 2300/2406 VRB02MPS 9999 FEW030CB SCT033 TX26/2307Z TN12/2321Z=
- 1 day ago -

TAF ZMUB 222249Z 2300/2406 VRB02MPS 9999 FEW030CB SCT033 TX26/2307Z TN12/2321Z=
- 1 day ago -

TAF ZMUB 221644Z 2218/2324 VRB02MPS 9999 FEW030CB SCT033 TN09/2221Z TX26/2307Z=
- 1 day ago -

TAF ZMUB 221644Z 2218/2324 VRB02MPS 9999 FEW030CB SCT033 TN09/2221Z TX26/2307Z=
- 1 day ago -